sensor_id;sensor_type;location;lat;lon;timestamp;pressure;altitude;pressure_sealevel;temperature;humidity
51926;BME280;37952;51.938;15.480;2022-10-16T00:02:45;99509.30;;;14.60;82.50
51926;BME280;37952;51.938;15.480;2022-10-16T00:05:49;99504.09;;;14.61;82.50
51926;BME280;37952;51.938;15.480;2022-10-16T00:08:52;99504.92;;;14.57;82.73
51926;BME280;37952;51.938;15.480;2022-10-16T00:11:55;99507.02;;;14.55;82.79
51926;BME280;37952;51.938;15.480;2022-10-16T00:14:58;99508.06;;;14.58;82.72
51926;BME280;37952;51.938;15.480;2022-10-16T00:18:01;99504.14;;;14.63;82.65
51926;BME280;37952;51.938;15.480;2022-10-16T00:21:07;99506.70;;;14.68;82.50
51926;BME280;37952;51.938;15.480;2022-10-16T00:24:10;99508.52;;;14.68;82.50
51926;BME280;37952;51.938;15.480;2022-10-16T00:27:14;99510.42;;;14.71;82.28
51926;BME280;37952;51.938;15.480;2022-10-16T00:30:17;99517.63;;;14.71;82.31
51926;BME280;37952;51.938;15.480;2022-10-16T00:33:20;99524.36;;;14.69;82.54
51926;BME280;37952;51.938;15.480;2022-10-16T00:36:24;99521.07;;;14.66;82.78
51926;BME280;37952;51.938;15.480;2022-10-16T00:39:27;99523.50;;;14.65;82.72
51926;BME280;37952;51.938;15.480;2022-10-16T00:42:31;99522.85;;;14.66;82.55
51926;BME280;37952;51.938;15.480;2022-10-16T00:45:34;99521.68;;;14.65;82.74
51926;BME280;37952;51.938;15.480;2022-10-16T00:48:36;99526.88;;;14.69;82.53
51926;BME280;37952;51.938;15.480;2022-10-16T00:51:43;99524.45;;;14.70;82.79
51926;BME280;37952;51.938;15.480;2022-10-16T00:54:47;99524.02;;;14.69;82.80
51926;BME280;37952;51.938;15.480;2022-10-16T00:57:52;99528.26;;;14.69;82.76
51926;BME280;37952;51.938;15.480;2022-10-16T01:00:55;99529.34;;;14.71;82.76
51926;BME280;37952;51.938;15.480;2022-10-16T01:03:58;99534.55;;;14.72;82.88
51926;BME280;37952;51.938;15.480;2022-10-16T01:07:18;99535.77;;;14.71;83.22
51926;BME280;37952;51.938;15.480;2022-10-16T01:10:45;99537.88;;;14.75;82.95
51926;BME280;37952;51.938;15.480;2022-10-16T01:13:54;99539.77;;;14.78;82.92
51926;BME280;37952;51.938;15.480;2022-10-16T01:17:04;99535.16;;;14.74;83.19
51926;BME280;37952;51.938;15.480;2022-10-16T01:23:27;99549.35;;;14.76;83.27
51926;BME280;37952;51.938;15.480;2022-10-16T01:27:05;99550.48;;;14.82;83.25
51926;BME280;37952;51.938;15.480;2022-10-16T01:30:13;99552.06;;;14.82;83.39
51926;BME280;37952;51.938;15.480;2022-10-16T01:33:24;99559.14;;;14.87;83.33
51926;BME280;37952;51.938;15.480;2022-10-16T01:36:37;99562.99;;;14.92;83.12
51926;BME280;37952;51.938;15.480;2022-10-16T01:39:42;99561.11;;;14.98;83.02
51926;BME280;37952;51.938;15.480;2022-10-16T01:42:53;99560.34;;;15.01;82.73
51926;BME280;37952;51.938;15.480;2022-10-16T01:45:59;99565.70;;;14.98;82.85
51926;BME280;37952;51.938;15.480;2022-10-16T01:49:03;99567.54;;;14.99;82.77
51926;BME280;37952;51.938;15.480;2022-10-16T01:52:13;99567.23;;;14.99;82.85
51926;BME280;37952;51.938;15.480;2022-10-16T01:55:24;99567.68;;;15.02;82.66
51926;BME280;37952;51.938;15.480;2022-10-16T01:59:27;99576.09;;;15.06;82.59
51926;BME280;37952;51.938;15.480;2022-10-16T02:02:34;99576.95;;;15.02;82.70
51926;BME280;37952;51.938;15.480;2022-10-16T02:05:41;99571.96;;;14.95;82.92
51926;BME280;37952;51.938;15.480;2022-10-16T02:08:46;99568.10;;;14.93;82.96
51926;BME280;37952;51.938;15.480;2022-10-16T02:11:51;99568.59;;;14.97;82.86
51926;BME280;37952;51.938;15.480;2022-10-16T02:14:55;99565.73;;;15.02;82.65
51926;BME280;37952;51.938;15.480;2022-10-16T02:17:59;99563.69;;;15.05;82.58
51926;BME280;37952;51.938;15.480;2022-10-16T02:21:19;99564.95;;;15.05;82.57
51926;BME280;37952;51.938;15.480;2022-10-16T02:24:57;99574.16;;;15.01;82.71
51926;BME280;37952;51.938;15.480;2022-10-16T02:28:06;99572.10;;;14.96;82.95
51926;BME280;37952;51.938;15.480;2022-10-16T02:31:16;99576.14;;;14.96;82.87
51926;BME280;37952;51.938;15.480;2022-10-16T02:34:22;99582.91;;;14.96;82.93
51926;BME280;37952;51.938;15.480;2022-10-16T02:37:27;99578.05;;;14.97;82.96
51926;BME280;37952;51.938;15.480;2022-10-16T02:40:30;99582.48;;;14.94;82.92
51926;BME280;37952;51.938;15.480;2022-10-16T02:43:34;99586.20;;;14.95;82.84
51926;BME280;37952;51.938;15.480;2022-10-16T02:46:37;99584.90;;;14.98;82.79
51926;BME280;37952;51.938;15.480;2022-10-16T02:49:40;99583.89;;;14.97;82.81
51926;BME280;37952;51.938;15.480;2022-10-16T02:52:43;99583.09;;;14.98;82.71
51926;BME280;37952;51.938;15.480;2022-10-16T02:55:46;99582.24;;;14.95;82.89
51926;BME280;37952;51.938;15.480;2022-10-16T02:58:50;99583.94;;;14.92;82.99
51926;BME280;37952;51.938;15.480;2022-10-16T03:01:52;99584.77;;;14.93;83.01
51926;BME280;37952;51.938;15.480;2022-10-16T03:04:55;99593.23;;;14.91;83.15
51926;BME280;37952;51.938;15.480;2022-10-16T03:07:58;99602.43;;;14.87;83.28
51926;BME280;37952;51.938;15.480;2022-10-16T03:11:03;99602.03;;;14.92;83.20
51926;BME280;37952;51.938;15.480;2022-10-16T03:14:06;99594.22;;;14.92;83.20
51926;BME280;37952;51.938;15.480;2022-10-16T03:17:10;99596.46;;;14.93;83.22
51926;BME280;37952;51.938;15.480;2022-10-16T03:20:13;99595.70;;;14.96;83.18
51926;BME280;37952;51.938;15.480;2022-10-16T03:23:16;99601.27;;;14.95;83.13
51926;BME280;37952;51.938;15.480;2022-10-16T03:26:19;99608.48;;;14.92;83.35
51926;BME280;37952;51.938;15.480;2022-10-16T03:29:22;99606.56;;;14.93;83.36
51926;BME280;37952;51.938;15.480;2022-10-16T03:32:25;99602.64;;;14.98;83.19
51926;BME280;37952;51.938;15.480;2022-10-16T03:35:28;99602.23;;;14.98;83.03
51926;BME280;37952;51.938;15.480;2022-10-16T03:38:32;99601.08;;;14.99;83.03
51926;BME280;37952;51.938;15.480;2022-10-16T03:41:36;99598.62;;;14.99;82.98
51926;BME280;37952;51.938;15.480;2022-10-16T03:44:38;99603.34;;;15.00;82.87
51926;BME280;37952;51.938;15.480;2022-10-16T03:47:41;99604.69;;;15.01;82.74
51926;BME280;37952;51.938;15.480;2022-10-16T03:50:44;99613.75;;;14.99;82.69
51926;BME280;37952;51.938;15.480;2022-10-16T03:53:48;99617.69;;;14.98;82.63
51926;BME280;37952;51.938;15.480;2022-10-16T03:56:51;99613.33;;;14.95;82.78
51926;BME280;37952;51.938;15.480;2022-10-16T03:59:54;99616.08;;;14.96;82.70
51926;BME280;37952;51.938;15.480;2022-10-16T04:02:57;99615.39;;;14.96;82.66
51926;BME280;37952;51.938;15.480;2022-10-16T04:06:00;99619.42;;;14.94;82.53
51926;BME280;37952;51.938;15.480;2022-10-16T04:09:03;99624.58;;;14.94;82.52
51926;BME280;37952;51.938;15.480;2022-10-16T04:12:06;99634.72;;;14.94;82.53
51926;BME280;37952;51.938;15.480;2022-10-16T04:15:09;99631.23;;;14.91;82.70
51926;BME280;37952;51.938;15.480;2022-10-16T04:18:13;99633.66;;;14.92;82.71
51926;BME280;37952;51.938;15.480;2022-10-16T04:21:16;99628.66;;;14.94;82.73
51926;BME280;37952;51.938;15.480;2022-10-16T04:24:18;99633.84;;;14.96;82.66
51926;BME280;37952;51.938;15.480;2022-10-16T04:27:21;99643.03;;;14.99;82.60
51926;BME280;37952;51.938;15.480;2022-10-16T04:30:25;99646.93;;;14.99;82.56
51926;BME280;37952;51.938;15.480;2022-10-16T04:33:28;99650.21;;;14.98;82.65
51926;BME280;37952;51.938;15.480;2022-10-16T04:36:31;99648.45;;;15.00;82.61
51926;BME280;37952;51.938;15.480;2022-10-16T04:39:34;99654.97;;;14.98;82.66
51926;BME280;37952;51.938;15.480;2022-10-16T04:42:37;99652.66;;;14.98;82.63
51926;BME280;37952;51.938;15.480;2022-10-16T04:45:40;99660.16;;;14.97;82.67
51926;BME280;37952;51.938;15.480;2022-10-16T04:48:43;99667.14;;;14.97;82.70
51926;BME280;37952;51.938;15.480;2022-10-16T04:51:45;99670.34;;;14.97;82.77
51926;BME280;37952;51.938;15.480;2022-10-16T04:54:48;99667.73;;;15.01;82.72
51926;BME280;37952;51.938;15.480;2022-10-16T04:57:53;99669.86;;;15.05;82.59
51926;BME280;37952;51.938;15.480;2022-10-16T05:00:55;99670.40;;;15.09;82.42
51926;BME280;37952;51.938;15.480;2022-10-16T05:03:58;99675.30;;;15.12;82.37
51926;BME280;37952;51.938;15.480;2022-10-16T05:07:01;99684.30;;;15.09;82.42
51926;BME280;37952;51.938;15.480;2022-10-16T05:10:04;99678.46;;;15.06;82.48
51926;BME280;37952;51.938;15.480;2022-10-16T05:13:07;99673.45;;;15.07;82.45
51926;BME280;37952;51.938;15.480;2022-10-16T05:16:11;99670.14;;;15.08;82.40
51926;BME280;37952;51.938;15.480;2022-10-16T05:19:14;99666.95;;;15.08;82.34
51926;BME280;37952;51.938;15.480;2022-10-16T05:22:29;99664.36;;;15.09;82.36
51926;BME280;37952;51.938;15.480;2022-10-16T05:25:32;99664.84;;;15.12;82.17
51926;BME280;37952;51.938;15.480;2022-10-16T05:28:35;99661.74;;;15.16;82.02
51926;BME280;37952;51.938;15.480;2022-10-16T05:31:38;99668.09;;;15.23;81.91
51926;BME280;37952;51.938;15.480;2022-10-16T05:34:41;99669.60;;;15.22;81.79
51926;BME280;37952;51.938;15.480;2022-10-16T05:37:47;99672.36;;;15.21;81.78
51926;BME280;37952;51.938;15.480;2022-10-16T05:40:52;99678.70;;;15.21;81.62
51926;BME280;37952;51.938;15.480;2022-10-16T05:43:56;99673.01;;;15.15;81.74
51926;BME280;37952;51.938;15.480;2022-10-16T05:47:00;99674.21;;;15.15;81.76
51926;BME280;37952;51.938;15.480;2022-10-16T05:50:03;99677.52;;;15.14;81.74
51926;BME280;37952;51.938;15.480;2022-10-16T05:53:07;99685.49;;;15.14;81.83
51926;BME280;37952;51.938;15.480;2022-10-16T05:56:11;99689.16;;;15.10;81.74
51926;BME280;37952;51.938;15.480;2022-10-16T05:59:17;99690.96;;;15.03;82.03
51926;BME280;37952;51.938;15.480;2022-10-16T06:02:20;99690.94;;;15.05;81.99
51926;BME280;37952;51.938;15.480;2022-10-16T06:05:22;99702.41;;;15.08;81.98
51926;BME280;37952;51.938;15.480;2022-10-16T06:08:25;99703.41;;;15.12;81.95
51926;BME280;37952;51.938;15.480;2022-10-16T06:11:30;99710.95;;;15.16;81.86
51926;BME280;37952;51.938;15.480;2022-10-16T06:14:33;99717.98;;;15.18;81.77
51926;BME280;37952;51.938;15.480;2022-10-16T06:17:36;99718.09;;;15.17;81.78
51926;BME280;37952;51.938;15.480;2022-10-16T06:20:39;99714.87;;;15.17;81.71
51926;BME280;37952;51.938;15.480;2022-10-16T06:23:42;99717.14;;;15.18;81.83
51926;BME280;37952;51.938;15.480;2022-10-16T06:26:45;99714.55;;;15.23;81.78
51926;BME280;37952;51.938;15.480;2022-10-16T06:29:48;99718.82;;;15.28;81.60
51926;BME280;37952;51.938;15.480;2022-10-16T06:32:51;99726.14;;;15.30;81.53
51926;BME280;37952;51.938;15.480;2022-10-16T06:36:00;99737.84;;;15.34;81.43
51926;BME280;37952;51.938;15.480;2022-10-16T06:39:05;99747.29;;;15.38;81.42
51926;BME280;37952;51.938;15.480;2022-10-16T06:42:09;99755.77;;;15.39;81.33
51926;BME280;37952;51.938;15.480;2022-10-16T06:45:12;99756.67;;;15.39;81.37
51926;BME280;37952;51.938;15.480;2022-10-16T06:48:15;99756.14;;;15.41;81.21
51926;BME280;37952;51.938;15.480;2022-10-16T06:51:22;99764.53;;;15.45;81.15
51926;BME280;37952;51.938;15.480;2022-10-16T06:54:26;99764.73;;;15.45;81.13
51926;BME280;37952;51.938;15.480;2022-10-16T06:57:29;99775.33;;;15.45;81.01
51926;BME280;37952;51.938;15.480;2022-10-16T07:00:32;99782.73;;;15.39;81.08
51926;BME280;37952;51.938;15.480;2022-10-16T07:03:36;99782.45;;;15.41;81.09
51926;BME280;37952;51.938;15.480;2022-10-16T07:06:40;99776.23;;;15.40;81.05
51926;BME280;37952;51.938;15.480;2022-10-16T07:09:43;99773.81;;;15.40;80.97
51926;BME280;37952;51.938;15.480;2022-10-16T07:12:46;99773.84;;;15.44;80.94
51926;BME280;37952;51.938;15.480;2022-10-16T07:15:49;99771.52;;;15.44;80.92
51926;BME280;37952;51.938;15.480;2022-10-16T07:18:57;99773.20;;;15.41;81.03
51926;BME280;37952;51.938;15.480;2022-10-16T07:22:03;99781.19;;;15.36;81.15
51926;BME280;37952;51.938;15.480;2022-10-16T07:25:11;99778.03;;;15.38;81.20
51926;BME280;37952;51.938;15.480;2022-10-16T07:28:14;99779.32;;;15.40;81.26
51926;BME280;37952;51.938;15.480;2022-10-16T07:31:19;99776.95;;;15.43;81.26
51926;BME280;37952;51.938;15.480;2022-10-16T07:34:22;99775.92;;;15.44;81.15
51926;BME280;37952;51.938;15.480;2022-10-16T07:37:25;99779.82;;;15.51;81.22
51926;BME280;37952;51.938;15.480;2022-10-16T07:40:29;99781.42;;;15.53;81.13
51926;BME280;37952;51.938;15.480;2022-10-16T07:43:32;99784.60;;;15.56;81.06
51926;BME280;37952;51.938;15.480;2022-10-16T07:46:35;99790.35;;;15.59;81.04
51926;BME280;37952;51.938;15.480;2022-10-16T07:49:38;99790.69;;;15.64;81.07
51926;BME280;37952;51.938;15.480;2022-10-16T07:52:41;99797.41;;;15.67;80.96
51926;BME280;37952;51.938;15.480;2022-10-16T07:55:44;99802.58;;;15.71;81.00
51926;BME280;37952;51.938;15.480;2022-10-16T07:58:47;99808.67;;;15.81;81.03
51926;BME280;37952;51.938;15.480;2022-10-16T08:01:51;99803.70;;;15.92;80.85
51926;BME280;37952;51.938;15.480;2022-10-16T08:04:54;99804.92;;;16.04;80.66
51926;BME280;37952;51.938;15.480;2022-10-16T08:07:57;99799.50;;;16.09;80.38
51926;BME280;37952;51.938;15.480;2022-10-16T08:11:00;99806.71;;;16.12;80.26
51926;BME280;37952;51.938;15.480;2022-10-16T08:14:06;99808.34;;;16.12;80.14
51926;BME280;37952;51.938;15.480;2022-10-16T08:17:09;99812.59;;;16.16;80.01
51926;BME280;37952;51.938;15.480;2022-10-16T08:20:12;99811.30;;;16.21;79.95
51926;BME280;37952;51.938;15.480;2022-10-16T08:23:15;99808.11;;;16.25;79.87
51926;BME280;37952;51.938;15.480;2022-10-16T08:26:18;99820.39;;;16.27;79.78
51926;BME280;37952;51.938;15.480;2022-10-16T08:29:21;99832.28;;;16.32;79.87
51926;BME280;37952;51.938;15.480;2022-10-16T08:32:24;99822.92;;;16.36;79.83
51926;BME280;37952;51.938;15.480;2022-10-16T08:35:29;99830.17;;;16.40;79.75
51926;BME280;37952;51.938;15.480;2022-10-16T08:38:33;99838.38;;;16.44;79.71
51926;BME280;37952;51.938;15.480;2022-10-16T08:44:59;99835.24;;;16.54;79.37
51926;BME280;37952;51.938;15.480;2022-10-16T08:48:53;99839.46;;;16.57;79.34
51926;BME280;37952;51.938;15.480;2022-10-16T08:51:57;99841.95;;;16.64;79.22
51926;BME280;37952;51.938;15.480;2022-10-16T08:55:00;99850.91;;;16.71;79.04
51926;BME280;37952;51.938;15.480;2022-10-16T08:58:27;99855.51;;;16.80;78.61
51926;BME280;37952;51.938;15.480;2022-10-16T09:01:47;99855.01;;;16.92;77.85
51926;BME280;37952;51.938;15.480;2022-10-16T09:18:44;99860.09;;;17.37;76.02
51926;BME280;37952;51.938;15.480;2022-10-16T09:21:48;99859.08;;;17.47;75.55
51926;BME280;37952;51.938;15.480;2022-10-16T09:24:51;99858.56;;;17.53;75.47
51926;BME280;37952;51.938;15.480;2022-10-16T09:27:55;99857.48;;;17.57;75.78
51926;BME280;37952;51.938;15.480;2022-10-16T09:30:58;99854.77;;;17.57;75.25
51926;BME280;37952;51.938;15.480;2022-10-16T09:34:03;99866.23;;;17.63;74.64
51926;BME280;37952;51.938;15.480;2022-10-16T09:37:12;99871.89;;;17.65;74.11
51926;BME280;37952;51.938;15.480;2022-10-16T09:44:31;99856.77;;;17.75;73.76
51926;BME280;37952;51.938;15.480;2022-10-16T09:47:44;99852.30;;;17.73;74.09
51926;BME280;37952;51.938;15.480;2022-10-16T09:51:02;99852.96;;;17.62;73.50
51926;BME280;37952;51.938;15.480;2022-10-16T09:57:13;99856.84;;;17.50;73.73
51926;BME280;37952;51.938;15.480;2022-10-16T10:00:16;99857.73;;;17.48;73.33
51926;BME280;37952;51.938;15.480;2022-10-16T10:06:36;99855.62;;;17.47;73.07
51926;BME280;37952;51.938;15.480;2022-10-16T10:09:44;99856.98;;;17.57;73.60
51926;BME280;37952;51.938;15.480;2022-10-16T10:12:48;99868.88;;;17.61;72.96
51926;BME280;37952;51.938;15.480;2022-10-16T10:15:52;99884.44;;;17.69;73.10
51926;BME280;37952;51.938;15.480;2022-10-16T10:18:59;99884.13;;;17.80;73.34
51926;BME280;37952;51.938;15.480;2022-10-16T10:22:59;99878.36;;;17.93;72.78
51926;BME280;37952;51.938;15.480;2022-10-16T10:33:05;99876.10;;;18.14;71.30
51926;BME280;37952;51.938;15.480;2022-10-16T10:39:56;99882.25;;;18.34;71.38
51926;BME280;37952;51.938;15.480;2022-10-16T10:46:36;99883.80;;;18.38;70.77
51926;BME280;37952;51.938;15.480;2022-10-16T10:56:51;99902.34;;;18.39;70.61
51926;BME280;37952;51.938;15.480;2022-10-16T11:00:14;99901.10;;;18.32;70.62
51926;BME280;37952;51.938;15.480;2022-10-16T11:07:05;99896.06;;;18.17;70.41
51926;BME280;37952;51.938;15.480;2022-10-16T11:10:20;99891.36;;;18.18;70.56
51926;BME280;37952;51.938;15.480;2022-10-16T11:16:39;99885.77;;;18.24;70.72
51926;BME280;37952;51.938;15.480;2022-10-16T11:19:49;99885.21;;;18.26;70.75
51926;BME280;37952;51.938;15.480;2022-10-16T11:23:02;99892.91;;;18.30;70.28
51926;BME280;37952;51.938;15.480;2022-10-16T11:26:15;99894.27;;;18.35;70.42
51926;BME280;37952;51.938;15.480;2022-10-16T11:29:26;99894.40;;;18.39;70.60
51926;BME280;37952;51.938;15.480;2022-10-16T11:32:36;99913.25;;;18.46;69.80
51926;BME280;37952;51.938;15.480;2022-10-16T11:39:29;99914.27;;;18.64;69.37
51926;BME280;37952;51.938;15.480;2022-10-16T11:42:42;99915.20;;;18.68;69.39
51926;BME280;37952;51.938;15.480;2022-10-16T11:45:54;99913.48;;;18.69;69.74
51926;BME280;37952;51.938;15.480;2022-10-16T11:49:15;99914.41;;;18.71;70.14
51926;BME280;37952;51.938;15.480;2022-10-16T11:56:05;99908.63;;;18.70;68.78
51926;BME280;37952;51.938;15.480;2022-10-16T11:59:27;99906.02;;;18.73;68.59
51926;BME280;37952;51.938;15.480;2022-10-16T12:02:48;99908.14;;;18.88;67.83
51926;BME280;37952;51.938;15.480;2022-10-16T12:09:27;99914.40;;;19.25;67.69
51926;BME280;37952;51.938;15.480;2022-10-16T12:15:39;99901.88;;;19.35;66.45
51926;BME280;37952;51.938;15.480;2022-10-16T12:19:14;99912.98;;;19.36;65.43
51926;BME280;37952;51.938;15.480;2022-10-16T12:22:18;99919.58;;;19.42;65.35
51926;BME280;37952;51.938;15.480;2022-10-16T12:25:36;99913.30;;;19.46;66.01
51926;BME280;37952;51.938;15.480;2022-10-16T12:28:40;99922.70;;;19.62;66.37
51926;BME280;37952;51.938;15.480;2022-10-16T12:31:47;99920.98;;;19.84;67.03
51926;BME280;37952;51.938;15.480;2022-10-16T12:35:00;99926.16;;;19.88;64.52
51926;BME280;37952;51.938;15.480;2022-10-16T12:38:14;99920.92;;;19.83;65.05
51926;BME280;37952;51.938;15.480;2022-10-16T12:41:27;99925.75;;;19.88;65.15
51926;BME280;37952;51.938;15.480;2022-10-16T12:44:34;99929.48;;;19.92;66.29
51926;BME280;37952;51.938;15.480;2022-10-16T12:47:48;99940.52;;;19.91;65.14
51926;BME280;37952;51.938;15.480;2022-10-16T12:50:51;99934.80;;;19.87;64.40
51926;BME280;37952;51.938;15.480;2022-10-16T13:07:26;99948.52;;;20.36;64.26
51926;BME280;37952;51.938;15.480;2022-10-16T13:11:00;99945.06;;;20.55;63.59
51926;BME280;37952;51.938;15.480;2022-10-16T13:15:32;99952.60;;;20.49;63.52
51926;BME280;37952;51.938;15.480;2022-10-16T13:18:26;99953.21;;;20.23;63.40
51926;BME280;37952;51.938;15.480;2022-10-16T13:28:35;99977.33;;;19.82;64.51
51926;BME280;37952;51.938;15.480;2022-10-16T13:31:42;99974.79;;;19.77;64.69
51926;BME280;37952;51.938;15.480;2022-10-16T13:34:48;99981.59;;;19.76;65.43
51926;BME280;37952;51.938;15.480;2022-10-16T13:38:23;99986.84;;;19.78;65.41
51926;BME280;37952;51.938;15.480;2022-10-16T13:41:25;99995.48;;;19.75;65.52
51926;BME280;37952;51.938;15.480;2022-10-16T13:44:33;99996.48;;;19.66;65.54
51926;BME280;37952;51.938;15.480;2022-10-16T13:47:37;100002.08;;;19.59;65.61
51926;BME280;37952;51.938;15.480;2022-10-16T13:50:40;100003.22;;;19.56;65.87
51926;BME280;37952;51.938;15.480;2022-10-16T13:53:45;100008.30;;;19.53;65.71
51926;BME280;37952;51.938;15.480;2022-10-16T13:56:48;100006.98;;;19.46;65.82
51926;BME280;37952;51.938;15.480;2022-10-16T14:00:21;100009.91;;;19.45;66.07
51926;BME280;37952;51.938;15.480;2022-10-16T14:03:27;100013.26;;;19.40;66.00
51926;BME280;37952;51.938;15.480;2022-10-16T14:06:31;100017.36;;;19.40;66.18
51926;BME280;37952;51.938;15.480;2022-10-16T14:09:35;100013.02;;;19.45;66.53
51926;BME280;37952;51.938;15.480;2022-10-16T14:12:39;100015.10;;;19.49;66.48
51926;BME280;37952;51.938;15.480;2022-10-16T14:15:47;100021.31;;;19.49;66.34
51926;BME280;37952;51.938;15.480;2022-10-16T14:18:59;100025.03;;;19.50;66.14
51926;BME280;37952;51.938;15.480;2022-10-16T14:22:20;100026.24;;;19.52;66.56
51926;BME280;37952;51.938;15.480;2022-10-16T14:25:29;100027.93;;;19.57;66.33
51926;BME280;37952;51.938;15.480;2022-10-16T14:28:32;100034.95;;;19.59;66.09
51926;BME280;37952;51.938;15.480;2022-10-16T14:31:41;100030.82;;;19.57;66.11
51926;BME280;37952;51.938;15.480;2022-10-16T14:34:53;100032.67;;;19.60;66.18
51926;BME280;37952;51.938;15.480;2022-10-16T14:37:58;100035.59;;;19.61;66.38
51926;BME280;37952;51.938;15.480;2022-10-16T14:41:03;100039.43;;;19.61;66.11
51926;BME280;37952;51.938;15.480;2022-10-16T14:44:10;100038.83;;;19.63;66.47
51926;BME280;37952;51.938;15.480;2022-10-16T14:47:16;100031.99;;;19.77;66.85
51926;BME280;37952;51.938;15.480;2022-10-16T14:50:20;100030.17;;;19.93;66.20
51926;BME280;37952;51.938;15.480;2022-10-16T14:53:23;100033.84;;;19.95;66.22
51926;BME280;37952;51.938;15.480;2022-10-16T14:56:34;100040.21;;;19.98;66.16
51926;BME280;37952;51.938;15.480;2022-10-16T14:59:44;100039.11;;;19.90;65.46
51926;BME280;37952;51.938;15.480;2022-10-16T15:02:48;100047.42;;;19.82;65.40
51926;BME280;37952;51.938;15.480;2022-10-16T15:05:52;100041.50;;;19.88;66.01
51926;BME280;37952;51.938;15.480;2022-10-16T15:08:55;100049.15;;;19.96;65.84
51926;BME280;37952;51.938;15.480;2022-10-16T15:11:58;100052.52;;;19.94;65.56
51926;BME280;37952;51.938;15.480;2022-10-16T15:15:01;100055.36;;;19.87;65.37
51926;BME280;37952;51.938;15.480;2022-10-16T15:18:05;100058.71;;;19.86;65.94
51926;BME280;37952;51.938;15.480;2022-10-16T15:21:25;100062.66;;;19.82;65.48
51926;BME280;37952;51.938;15.480;2022-10-16T15:24:29;100063.65;;;19.69;65.64
51926;BME280;37952;51.938;15.480;2022-10-16T15:27:32;100064.13;;;19.60;65.86
51926;BME280;37952;51.938;15.480;2022-10-16T15:30:42;100069.33;;;19.51;66.07
51926;BME280;37952;51.938;15.480;2022-10-16T15:33:53;100068.81;;;19.42;66.40
51926;BME280;37952;51.938;15.480;2022-10-16T15:37:05;100071.74;;;19.38;66.64
51926;BME280;37952;51.938;15.480;2022-10-16T15:40:09;100073.89;;;19.34;66.80
51926;BME280;37952;51.938;15.480;2022-10-16T15:43:12;100074.06;;;19.32;66.88
51926;BME280;37952;51.938;15.480;2022-10-16T15:46:19;100085.81;;;19.26;66.87
51926;BME280;37952;51.938;15.480;2022-10-16T15:49:22;100089.36;;;19.17;66.97
51926;BME280;37952;51.938;15.480;2022-10-16T15:52:25;100092.24;;;19.11;67.20
51926;BME280;37952;51.938;15.480;2022-10-16T15:55:29;100095.82;;;19.09;67.34
51926;BME280;37952;51.938;15.480;2022-10-16T15:58:34;100101.98;;;19.03;67.41
51926;BME280;37952;51.938;15.480;2022-10-16T16:01:37;100111.29;;;19.01;67.43
51926;BME280;37952;51.938;15.480;2022-10-16T16:04:41;100115.23;;;18.91;67.74
51926;BME280;37952;51.938;15.480;2022-10-16T16:07:46;100118.13;;;18.83;67.99
51926;BME280;37952;51.938;15.480;2022-10-16T16:11:05;100121.45;;;18.80;68.08
51926;BME280;37952;51.938;15.480;2022-10-16T16:14:12;100120.59;;;18.77;68.15
51926;BME280;37952;51.938;15.480;2022-10-16T16:17:15;100124.26;;;18.76;68.17
51926;BME280;37952;51.938;15.480;2022-10-16T16:20:18;100126.66;;;18.65;68.48
51926;BME280;37952;51.938;15.480;2022-10-16T16:23:21;100121.17;;;18.62;68.53
51926;BME280;37952;51.938;15.480;2022-10-16T16:26:29;100127.08;;;18.62;68.49
51926;BME280;37952;51.938;15.480;2022-10-16T16:29:36;100133.10;;;18.59;68.79
51926;BME280;37952;51.938;15.480;2022-10-16T16:32:39;100133.02;;;18.56;68.64
51926;BME280;37952;51.938;15.480;2022-10-16T16:35:42;100139.84;;;18.53;68.87
51926;BME280;37952;51.938;15.480;2022-10-16T16:38:46;100140.82;;;18.50;69.13
51926;BME280;37952;51.938;15.480;2022-10-16T16:41:49;100143.44;;;18.47;69.07
51926;BME280;37952;51.938;15.480;2022-10-16T16:44:53;100141.65;;;18.45;69.01
51926;BME280;37952;51.938;15.480;2022-10-16T16:47:56;100144.23;;;18.41;69.19
51926;BME280;37952;51.938;15.480;2022-10-16T16:51:07;100158.83;;;18.32;69.62
51926;BME280;37952;51.938;15.480;2022-10-16T16:54:11;100165.08;;;18.21;70.07
51926;BME280;37952;51.938;15.480;2022-10-16T16:57:19;100171.40;;;18.22;69.95
51926;BME280;37952;51.938;15.480;2022-10-16T17:00:23;100173.29;;;18.23;69.92
51926;BME280;37952;51.938;15.480;2022-10-16T17:03:31;100175.13;;;18.23;69.92
51926;BME280;37952;51.938;15.480;2022-10-16T17:06:34;100174.26;;;18.24;69.86
51926;BME280;37952;51.938;15.480;2022-10-16T17:09:37;100174.89;;;18.27;69.85
51926;BME280;37952;51.938;15.480;2022-10-16T17:12:40;100175.60;;;18.27;69.68
51926;BME280;37952;51.938;15.480;2022-10-16T17:15:46;100186.34;;;18.31;69.66
51926;BME280;37952;51.938;15.480;2022-10-16T17:18:50;100195.70;;;18.30;69.53
51926;BME280;37952;51.938;15.480;2022-10-16T17:21:57;100204.45;;;18.30;69.64
51926;BME280;37952;51.938;15.480;2022-10-16T17:25:00;100212.52;;;18.32;69.73
51926;BME280;37952;51.938;15.480;2022-10-16T17:28:07;100213.13;;;18.31;69.74
51926;BME280;37952;51.938;15.480;2022-10-16T17:31:14;100219.03;;;18.29;69.72
51926;BME280;37952;51.938;15.480;2022-10-16T17:34:19;100217.33;;;18.22;70.24
51926;BME280;37952;51.938;15.480;2022-10-16T17:37:22;100221.30;;;18.17;70.34
51926;BME280;37952;51.938;15.480;2022-10-16T17:40:25;100229.36;;;18.18;70.38
51926;BME280;37952;51.938;15.480;2022-10-16T17:43:28;100242.73;;;18.21;70.52
51926;BME280;37952;51.938;15.480;2022-10-16T17:46:31;100256.45;;;18.21;70.44
51926;BME280;37952;51.938;15.480;2022-10-16T17:49:41;100254.46;;;18.23;70.46